Time;durP1;ratioP1;P1;durP2;ratioP2;P2;SDS_P1;SDS_P2;PMS_P1;PMS_P2;Temp;Humidity;BMP_temperature;BMP_pressure;BME280_temperature;BME280_humidity;BME280_pressure;Samples;Min_cycle;Max_cycle;Signal;HPM_P1;HPM_P2
2024/01/23 00:01:08;;;;;;;1.80;1.53;;;6.40;99.90;;;;;;5019218;28;20175;-67
2024/01/23 00:03:34;;;;;;;2.33;1.07;;;6.40;99.90;;;;;;5030106;28;20198;-67
2024/01/23 00:05:59;;;;;;;2.40;1.40;;;6.40;99.90;;;;;;5023811;28;20440;-67
2024/01/23 00:08:24;;;;;;;2.63;1.30;;;6.40;99.90;;;;;;5020613;28;20194;-67
2024/01/23 00:10:50;;;;;;;3.33;1.50;;;6.40;99.90;;;;;;5027831;28;20182;-67
2024/01/23 00:13:16;;;;;;;1.03;0.93;;;6.50;99.90;;;;;;5015205;28;20213;-67
2024/01/23 00:15:41;;;;;;;3.43;2.00;;;6.50;99.90;;;;;;5019242;28;20175;-67
2024/01/23 00:18:07;;;;;;;2.87;1.40;;;6.50;99.90;;;;;;5021330;28;20202;-67
2024/01/23 00:20:33;;;;;;;1.43;1.17;;;6.50;99.90;;;;;;5019359;28;20175;-67
2024/01/23 00:22:58;;;;;;;3.00;1.00;;;6.50;99.90;;;;;;5017468;28;21064;-67
2024/01/23 00:25:24;;;;;;;3.80;1.67;;;6.40;99.90;;;;;;5023800;28;20179;-67
2024/01/23 00:27:49;;;;;;;2.90;1.10;;;6.40;99.90;;;;;;5012105;28;20340;-67
2024/01/23 00:30:15;;;;;;;3.73;1.20;;;6.40;99.90;;;;;;5021265;28;20178;-67
2024/01/23 00:32:41;;;;;;;5.70;1.63;;;6.30;99.90;;;;;;5012207;28;20179;-67
2024/01/23 00:35:07;;;;;;;5.47;1.60;;;6.30;99.90;;;;;;5012453;28;20190;-67
2024/01/23 00:37:33;;;;;;;3.47;1.67;;;6.20;99.90;;;;;;5013244;28;20955;-67
2024/01/23 00:40:00;;;;;;;2.03;1.30;;;6.10;99.90;;;;;;5011971;28;20425;-67
2024/01/23 00:42:26;;;;;;;1.90;1.80;;;6.10;99.90;;;;;;5012395;28;20782;-67
2024/01/23 00:44:53;;;;;;;4.40;1.70;;;6.00;99.90;;;;;;5017533;28;20464;-67
2024/01/23 00:47:19;;;;;;;4.53;1.70;;;6.00;99.90;;;;;;5025495;28;20807;-67
2024/01/23 00:49:44;;;;;;;6.13;1.70;;;6.00;99.90;;;;;;5023046;28;20436;-67
2024/01/23 00:52:11;;;;;;;3.90;1.60;;;6.00;99.90;;;;;;5026380;28;20178;-67
2024/01/23 00:54:37;;;;;;;4.47;1.77;;;6.00;99.90;;;;;;5026862;28;20210;-67
2024/01/23 00:57:05;;;;;;;3.00;1.40;;;6.10;99.90;;;;;;5028095;28;20808;-67
2024/01/23 00:59:31;;;;;;;2.17;1.10;;;6.10;99.90;;;;;;5015662;28;20171;-67
2024/01/23 01:01:56;;;;;;;3.03;1.40;;;6.10;99.90;;;;;;5015799;28;20429;-67
2024/01/23 01:04:22;;;;;;;2.60;1.40;;;6.10;99.90;;;;;;5021922;28;20484;-67
2024/01/23 01:06:47;;;;;;;6.73;1.40;;;6.20;99.90;;;;;;5017804;28;20550;-67
2024/01/23 01:09:13;;;;;;;2.60;1.50;;;6.20;99.90;;;;;;5016017;28;20668;-67
2024/01/23 01:11:38;;;;;;;6.00;2.33;;;6.20;99.90;;;;;;5016450;28;20175;-67
2024/01/23 01:14:04;;;;;;;5.80;1.70;;;6.20;99.90;;;;;;5033188;28;20202;-67
2024/01/23 01:16:30;;;;;;;5.53;2.00;;;6.20;99.90;;;;;;5031406;28;20256;-67
2024/01/23 01:18:57;;;;;;;2.20;1.80;;;6.20;99.90;;;;;;5018843;28;20301;-67
2024/01/23 01:21:22;;;;;;;5.33;1.70;;;6.20;99.90;;;;;;5018216;28;20186;-67
2024/01/23 01:23:48;;;;;;;8.70;2.90;;;6.20;99.90;;;;;;5018925;28;20516;-66
2024/01/23 01:26:13;;;;;;;5.53;2.00;;;6.20;99.90;;;;;;5012684;28;20171;-67
2024/01/23 01:28:39;;;;;;;2.37;2.00;;;6.20;99.90;;;;;;5021142;28;20660;-67
2024/01/23 01:31:04;;;;;;;7.30;2.07;;;6.10;99.90;;;;;;5024124;28;20628;-67
2024/01/23 01:33:30;;;;;;;5.67;1.83;;;6.00;99.90;;;;;;5030788;28;20205;-66
2024/01/23 01:35:55;;;;;;;2.23;1.30;;;5.90;99.90;;;;;;5025643;28;20213;-67
2024/01/23 01:38:21;;;;;;;3.50;1.80;;;5.80;99.90;;;;;;5022088;28;20237;-66
2024/01/23 01:40:46;;;;;;;9.47;1.77;;;5.80;99.90;;;;;;5009001;28;20545;-67
2024/01/23 01:43:26;;;;;;;5.03;1.53;;;5.70;99.90;;;;;;5013923;28;20741;-66
2024/01/23 01:46:12;;;;;;;10.33;2.40;;;5.70;99.90;;;;;;5021624;28;20270;-67
2024/01/23 01:48:38;;;;;;;3.47;1.40;;;5.70;99.90;;;;;;5016555;28;20464;-67
2024/01/23 01:51:04;;;;;;;3.70;1.70;;;5.70;99.90;;;;;;5023478;28;20493;-67
2024/01/23 01:53:30;;;;;;;6.37;1.67;;;5.70;99.90;;;;;;5017273;28;20422;-67
2024/01/23 01:55:56;;;;;;;9.93;1.73;;;5.70;99.90;;;;;;5013820;28;20418;-67
2024/01/23 01:58:24;;;;;;;3.90;1.63;;;5.70;99.90;;;;;;5026950;28;21189;-67
2024/01/23 02:00:52;;;;;;;3.73;1.60;;;5.70;99.90;;;;;;5013475;28;20187;-66
2024/01/23 02:03:18;;;;;;;1.73;1.17;;;5.70;99.90;;;;;;5013653;28;20831;-67
2024/01/23 02:05:43;;;;;;;5.20;1.60;;;5.60;99.90;;;;;;5025032;28;20444;-67
2024/01/23 02:08:10;;;;;;;5.70;1.97;;;5.60;99.90;;;;;;5021648;28;20191;-66
2024/01/23 02:10:35;;;;;;;6.93;2.33;;;5.50;99.90;;;;;;5027482;28;20245;-66
2024/01/23 02:13:01;;;;;;;6.33;1.57;;;5.50;99.90;;;;;;5021303;28;20421;-67
2024/01/23 02:15:26;;;;;;;4.77;1.50;;;5.50;99.90;;;;;;5021128;28;20281;-66
2024/01/23 02:17:52;;;;;;;2.97;1.20;;;5.50;99.90;;;;;;5022803;28;20194;-66
2024/01/23 02:20:17;;;;;;;2.97;1.53;;;5.50;99.90;;;;;;5021250;28;20187;-66
2024/01/23 02:22:43;;;;;;;8.07;1.50;;;5.50;99.90;;;;;;5028329;28;20659;-66
2024/01/23 02:25:08;;;;;;;3.53;1.37;;;5.50;99.90;;;;;;5023097;28;20205;-66
2024/01/23 02:27:34;;;;;;;6.43;2.37;;;5.50;99.90;;;;;;5018709;28;20205;-67
2024/01/23 02:30:00;;;;;;;5.80;2.17;;;5.50;99.90;;;;;;5022776;28;20182;-66
2024/01/23 02:32:25;;;;;;;8.90;2.10;;;5.50;99.90;;;;;;5020257;28;20647;-67
2024/01/23 02:34:51;;;;;;;6.50;2.33;;;5.60;99.90;;;;;;5023723;28;20260;-69
2024/01/23 02:37:16;;;;;;;9.77;2.37;;;5.50;99.90;;;;;;5015406;28;20210;-67
2024/01/23 02:39:42;;;;;;;4.90;2.20;;;5.50;99.90;;;;;;5013978;28;20178;-67
2024/01/23 02:42:09;;;;;;;4.30;1.80;;;5.50;99.90;;;;;;5015403;28;20210;-67
2024/01/23 02:44:34;;;;;;;4.70;1.63;;;5.40;99.90;;;;;;5018165;28;20695;-69
2024/01/23 02:47:00;;;;;;;6.20;1.50;;;5.30;99.90;;;;;;5018057;28;20446;-66
2024/01/23 02:49:25;;;;;;;8.50;1.90;;;5.30;99.90;;;;;;5015352;28;20174;-67
2024/01/23 02:51:52;;;;;;;13.50;2.40;;;5.30;99.90;;;;;;5024670;28;20587;-66
2024/01/23 02:54:18;;;;;;;8.00;2.40;;;5.30;99.90;;;;;;5004860;28;20186;-66
2024/01/23 02:56:44;;;;;;;5.30;2.03;;;5.30;99.90;;;;;;5018698;28;20801;-66
2024/01/23 02:59:10;;;;;;;2.90;1.83;;;5.30;99.90;;;;;;5015186;28;20282;-66
2024/01/23 03:01:35;;;;;;;6.47;2.57;;;5.40;99.90;;;;;;5019442;28;20544;-66
2024/01/23 03:04:01;;;;;;;5.20;2.00;;;5.40;99.90;;;;;;5020509;28;20198;-66
2024/01/23 03:06:26;;;;;;;4.43;2.10;;;5.40;99.90;;;;;;5022765;28;20706;-67
2024/01/23 03:08:52;;;;;;;9.00;2.80;;;5.50;99.90;;;;;;5012313;28;20226;-67
2024/01/23 03:11:17;;;;;;;3.50;2.40;;;5.50;99.90;;;;;;5020813;28;20206;-67
2024/01/23 03:13:43;;;;;;;7.50;2.20;;;5.50;99.90;;;;;;5012712;28;20205;-67
2024/01/23 03:16:08;;;;;;;4.80;1.80;;;5.50;99.90;;;;;;5013333;28;20225;-67
2024/01/23 03:18:34;;;;;;;7.50;2.03;;;5.50;99.90;;;;;;5022656;28;20190;-67
2024/01/23 03:20:59;;;;;;;8.77;2.27;;;5.50;99.90;;;;;;5019791;28;20194;-66
2024/01/23 03:23:25;;;;;;;6.23;2.47;;;5.50;99.90;;;;;;5005109;28;20286;-67
2024/01/23 03:25:50;;;;;;;6.60;1.93;;;5.50;99.90;;;;;;5008569;28;20179;-67
2024/01/23 03:28:16;;;;;;;8.97;2.60;;;5.50;99.90;;;;;;5014064;28;20201;-67
2024/01/23 03:30:41;;;;;;;12.77;3.30;;;5.50;99.90;;;;;;5014729;28;20179;-67
2024/01/23 03:33:07;;;;;;;7.53;2.30;;;5.50;99.90;;;;;;5020660;28;20174;-67
2024/01/23 03:35:33;;;;;;;9.30;3.10;;;5.60;99.90;;;;;;5012600;28;20265;-67
2024/01/23 03:37:58;;;;;;;9.60;2.87;;;5.60;99.90;;;;;;5012855;28;20672;-67
2024/01/23 03:40:24;;;;;;;10.43;2.60;;;5.60;99.90;;;;;;5016474;28;20170;-67
2024/01/23 03:42:49;;;;;;;21.47;2.70;;;5.60;99.90;;;;;;5016526;28;20192;-67
2024/01/23 03:45:15;;;;;;;7.03;2.40;;;5.60;99.90;;;;;;5018882;28;20218;-67
2024/01/23 03:47:40;;;;;;;5.97;1.93;;;5.60;99.90;;;;;;5021190;28;20248;-67
2024/01/23 03:50:06;;;;;;;8.80;2.40;;;5.60;99.90;;;;;;5025837;28;20186;-67
2024/01/23 03:52:32;;;;;;;5.30;2.73;;;5.60;99.90;;;;;;5013757;28;20252;-67
2024/01/23 03:54:57;;;;;;;9.20;2.23;;;5.60;99.90;;;;;;5012059;28;20469;-66
2024/01/23 03:57:23;;;;;;;8.07;2.20;;;5.60;99.90;;;;;;5011122;28;20218;-67
2024/01/23 03:59:49;;;;;;;7.57;2.47;;;5.60;99.90;;;;;;5019435;28;20179;-67
2024/01/23 04:02:15;;;;;;;10.77;3.67;;;5.60;99.90;;;;;;5021934;28;20186;-67
2024/01/23 04:04:41;;;;;;;10.43;3.07;;;5.70;99.90;;;;;;5011006;28;20557;-66
2024/01/23 04:07:06;;;;;;;14.20;3.40;;;5.70;99.90;;;;;;5022355;28;20229;-67
2024/01/23 04:09:32;;;;;;;7.77;2.33;;;5.70;99.90;;;;;;5023473;28;20313;-67
2024/01/23 04:11:58;;;;;;;9.37;2.60;;;5.70;99.90;;;;;;5015738;28;20652;-66
2024/01/23 04:14:23;;;;;;;10.10;2.50;;;5.70;99.90;;;;;;5012068;28;20183;-67
2024/01/23 04:16:48;;;;;;;13.77;2.33;;;5.70;99.90;;;;;;5013797;28;20187;-67
2024/01/23 04:19:14;;;;;;;10.53;4.00;;;5.70;99.90;;;;;;5015671;28;20656;-67
2024/01/23 04:21:40;;;;;;;13.60;2.83;;;5.80;99.90;;;;;;5021497;28;20182;-66
2024/01/23 04:24:05;;;;;;;11.87;3.50;;;5.80;99.90;;;;;;5024621;28;20214;-68
2024/01/23 04:26:32;;;;;;;9.00;2.40;;;5.90;99.90;;;;;;5023970;28;20178;-66
2024/01/23 04:28:57;;;;;;;11.70;2.37;;;5.90;99.90;;;;;;5025994;28;20720;-66
2024/01/23 04:31:23;;;;;;;10.10;1.87;;;5.80;99.90;;;;;;5018086;28;20504;-66
2024/01/23 04:33:49;;;;;;;10.80;2.20;;;5.80;99.90;;;;;;5014693;28;20252;-68
2024/01/23 04:36:16;;;;;;;17.33;2.97;;;5.80;99.90;;;;;;5023677;28;20202;-69
2024/01/23 04:38:42;;;;;;;6.80;1.90;;;5.80;99.90;;;;;;5026017;28;20481;-68
2024/01/23 04:41:08;;;;;;;5.63;2.63;;;5.80;99.90;;;;;;5023744;28;20533;-67
2024/01/23 04:43:33;;;;;;;5.83;2.77;;;5.80;99.90;;;;;;5021539;28;20215;-69
2024/01/23 04:45:59;;;;;;;11.20;1.80;;;5.80;99.90;;;;;;5012346;28;20180;-66
2024/01/23 04:48:25;;;;;;;4.23;1.80;;;5.70;99.90;;;;;;5017605;28;20286;-66
2024/01/23 04:50:50;;;;;;;11.27;3.00;;;5.70;99.90;;;;;;5013982;28;20247;-66
2024/01/23 04:53:16;;;;;;;7.83;1.73;;;5.70;99.90;;;;;;5025462;28;20463;-68
2024/01/23 04:55:41;;;;;;;7.07;2.30;;;5.70;99.90;;;;;;5026975;28;20170;-66
2024/01/23 04:58:07;;;;;;;9.93;2.30;;;5.60;99.90;;;;;;5022387;28;20213;-66
2024/01/23 05:00:32;;;;;;;8.43;2.43;;;5.60;99.90;;;;;;5016284;28;20178;-66
2024/01/23 05:03:01;;;;;;;6.30;2.20;;;5.60;99.90;;;;;;5023484;28;20191;-66
2024/01/23 05:05:27;;;;;;;10.30;2.37;;;5.60;99.90;;;;;;5021468;28;20237;-66
2024/01/23 05:07:53;;;;;;;8.20;2.20;;;5.50;99.90;;;;;;5022296;28;20865;-66
2024/01/23 05:10:18;;;;;;;10.43;2.20;;;5.50;99.90;;;;;;5012759;28;20182;-66
2024/01/23 05:12:44;;;;;;;9.13;2.13;;;5.50;99.90;;;;;;5024441;28;20610;-66
2024/01/23 05:15:09;;;;;;;14.97;2.70;;;5.40;99.90;;;;;;5020479;28;20664;-68
2024/01/23 05:17:36;;;;;;;7.50;2.53;;;5.40;99.90;;;;;;4999400;28;20202;-68
2024/01/23 05:20:04;;;;;;;12.03;2.73;;;5.50;99.90;;;;;;5007635;28;20521;-66
2024/01/23 05:22:30;;;;;;;8.40;2.20;;;5.50;99.90;;;;;;5023502;28;20444;-66
2024/01/23 05:24:55;;;;;;;4.47;1.80;;;5.50;99.90;;;;;;5013525;28;20470;-66
2024/01/23 05:27:21;;;;;;;8.87;2.00;;;5.40;99.90;;;;;;5013863;28;20206;-66
2024/01/23 05:29:46;;;;;;;8.00;1.43;;;5.40;99.90;;;;;;5021293;28;20624;-66
2024/01/23 05:32:12;;;;;;;4.53;1.57;;;5.40;99.90;;;;;;5016926;28;20187;-66
2024/01/23 05:34:38;;;;;;;4.93;1.50;;;5.40;99.90;;;;;;5020226;28;20530;-67
2024/01/23 05:37:03;;;;;;;4.87;1.80;;;5.40;99.90;;;;;;5023826;28;20193;-66
2024/01/23 05:39:29;;;;;;;5.70;1.33;;;5.40;99.90;;;;;;5015026;28;20656;-66
2024/01/23 05:41:54;;;;;;;5.13;1.27;;;5.40;99.90;;;;;;5025189;28;20170;-66
2024/01/23 05:44:21;;;;;;;10.83;1.70;;;5.40;99.90;;;;;;5023507;28;20206;-66
2024/01/23 05:46:47;;;;;;;14.17;5.73;;;5.30;99.90;;;;;;5021911;28;20174;-66
2024/01/23 05:49:12;;;;;;;5.77;2.33;;;5.30;99.90;;;;;;5022926;28;21127;-66
2024/01/23 05:51:38;;;;;;;2.47;1.00;;;5.30;99.90;;;;;;5017549;28;20253;-66
2024/01/23 05:54:03;;;;;;;1.97;0.80;;;5.20;99.90;;;;;;5016975;28;20186;-67
2024/01/23 05:56:29;;;;;;;3.83;1.27;;;5.20;99.90;;;;;;5015028;28;20191;-66
2024/01/23 05:58:55;;;;;;;2.73;1.03;;;5.20;99.90;;;;;;5044778;22;20222;-70
2024/01/23 06:01:21;;;;;;;5.33;0.93;;;5.10;99.90;;;;;;5031612;28;20175;-70
2024/01/23 06:03:47;;;;;;;1.10;0.80;;;5.10;99.90;;;;;;5043537;28;20470;-70
2024/01/23 06:06:14;;;;;;;1.40;1.00;;;5.10;99.90;;;;;;5044037;28;20440;-69
2024/01/23 06:08:40;;;;;;;4.90;1.50;;;5.00;99.90;;;;;;5067076;28;20255;-70
2024/01/23 06:11:05;;;;;;;2.03;1.00;;;5.00;99.90;;;;;;5039861;28;21136;-71
2024/01/23 06:13:31;;;;;;;3.00;1.00;;;5.00;99.90;;;;;;5057765;28;20199;-70
2024/01/23 06:15:56;;;;;;;2.83;1.00;;;5.00;99.90;;;;;;5038878;28;20178;-70
2024/01/23 06:18:22;;;;;;;3.10;1.30;;;4.90;99.90;;;;;;5057339;28;20189;-71
2024/01/23 06:20:47;;;;;;;0.90;0.73;;;4.90;99.90;;;;;;5046869;28;20182;-70
2024/01/23 06:23:13;;;;;;;4.67;2.10;;;4.80;99.90;;;;;;5049137;28;20660;-70
2024/01/23 06:25:38;;;;;;;3.67;2.23;;;4.80;99.90;;;;;;5054923;28;20176;-70
2024/01/23 06:28:04;;;;;;;11.30;1.73;;;4.80;99.90;;;;;;5044116;28;20197;-70
2024/01/23 06:30:30;;;;;;;3.90;3.50;;;4.70;99.90;;;;;;5050789;28;20198;-70
2024/01/23 06:32:55;;;;;;;3.30;2.50;;;4.70;99.90;;;;;;5051866;28;20193;-70
2024/01/23 06:35:21;;;;;;;2.37;1.40;;;4.60;99.90;;;;;;5054630;28;20445;-70
2024/01/23 06:37:47;;;;;;;4.20;1.60;;;4.60;99.90;;;;;;5042923;28;20586;-70
2024/01/23 06:40:12;;;;;;;2.13;1.10;;;4.50;99.90;;;;;;5060207;28;20173;-70
2024/01/23 06:42:38;;;;;;;2.40;0.90;;;4.50;99.90;;;;;;5044367;28;20185;-70
2024/01/23 06:45:05;;;;;;;3.33;1.50;;;4.50;99.90;;;;;;5059544;28;20208;-70
2024/01/23 06:47:30;;;;;;;1.03;0.73;;;4.50;99.90;;;;;;5049610;28;20442;-70
2024/01/23 06:49:56;;;;;;;1.13;1.00;;;4.60;99.90;;;;;;5056039;28;20437;-70
2024/01/23 06:52:21;;;;;;;1.77;0.90;;;4.60;99.90;;;;;;5047121;28;20311;-70
2024/01/23 06:54:47;;;;;;;3.37;1.40;;;4.60;99.90;;;;;;5058321;28;20179;-71
2024/01/23 06:57:13;;;;;;;2.53;1.60;;;4.60;99.90;;;;;;5054913;28;20181;-70
2024/01/23 06:59:38;;;;;;;2.50;1.33;;;4.60;99.90;;;;;;5066123;28;20423;-70
2024/01/23 07:02:04;;;;;;;2.73;1.40;;;4.50;99.90;;;;;;5059591;28;20268;-70
2024/01/23 07:04:30;;;;;;;3.33;1.60;;;4.50;99.90;;;;;;5040215;28;21485;-70
2024/01/23 07:06:55;;;;;;;1.87;1.50;;;4.40;99.90;;;;;;5064645;28;20444;-70
2024/01/23 07:09:21;;;;;;;2.33;1.40;;;4.40;99.90;;;;;;5052153;28;20188;-70
2024/01/23 07:11:47;;;;;;;4.80;2.80;;;4.30;99.90;;;;;;5058199;28;20702;-70
2024/01/23 07:14:13;;;;;;;4.20;2.57;;;4.30;99.90;;;;;;5070563;28;20181;-70
2024/01/23 07:16:38;;;;;;;5.83;1.97;;;4.20;99.90;;;;;;5053215;28;20448;-70
2024/01/23 07:19:04;;;;;;;7.23;4.07;;;4.20;99.90;;;;;;5037594;28;20259;-70
2024/01/23 07:21:30;;;;;;;7.00;4.37;;;4.20;99.90;;;;;;5041119;28;20182;-70
2024/01/23 07:23:55;;;;;;;4.00;2.97;;;4.20;99.90;;;;;;5048749;28;20292;-70
2024/01/23 07:26:21;;;;;;;3.40;1.67;;;4.10;99.90;;;;;;5059059;28;20178;-70
2024/01/23 07:28:46;;;;;;;2.40;1.27;;;4.10;99.90;;;;;;5049772;28;20224;-70
2024/01/23 07:31:12;;;;;;;1.70;1.30;;;4.10;99.90;;;;;;5044970;28;20169;-70
2024/01/23 07:33:39;;;;;;;4.97;3.30;;;4.20;99.90;;;;;;5048421;28;20186;-70
2024/01/23 07:36:04;;;;;;;2.93;2.80;;;4.10;99.90;;;;;;5059085;28;20420;-70
2024/01/23 07:38:30;;;;;;;1.67;1.20;;;4.10;99.90;;;;;;5040126;28;20988;-70
2024/01/23 07:40:56;;;;;;;3.30;2.30;;;4.10;99.90;;;;;;5052019;28;20943;-70
2024/01/23 07:43:25;;;;;;;7.30;5.03;;;4.20;99.90;;;;;;5049351;28;20166;-70
2024/01/23 07:45:51;;;;;;;7.97;4.73;;;4.30;99.90;;;;;;5032424;28;20221;-70
2024/01/23 07:48:16;;;;;;;5.00;2.60;;;4.30;99.90;;;;;;5045304;28;20488;-70
2024/01/23 07:50:42;;;;;;;5.23;2.50;;;4.40;99.90;;;;;;5040377;28;20201;-70
2024/01/23 07:53:08;;;;;;;3.43;2.33;;;4.70;99.90;;;;;;5051923;28;20174;-70
2024/01/23 07:55:33;;;;;;;2.67;2.07;;;5.10;99.90;;;;;;5058240;28;20228;-71
2024/01/23 07:57:59;;;;;;;6.33;2.30;;;5.20;99.90;;;;;;5044036;28;20205;-70
2024/01/23 08:00:24;;;;;;;3.00;1.63;;;4.90;99.90;;;;;;5038567;28;20177;-70
2024/01/23 08:02:50;;;;;;;3.20;1.70;;;4.80;99.90;;;;;;5047010;28;20875;-70
2024/01/23 08:05:15;;;;;;;3.60;1.33;;;4.70;99.90;;;;;;5043656;28;20202;-70
2024/01/23 08:07:41;;;;;;;1.83;1.50;;;4.70;99.90;;;;;;5049332;28;20200;-70
2024/01/23 08:10:09;;;;;;;2.73;1.77;;;4.70;99.90;;;;;;5045073;28;20169;-70
2024/01/23 08:12:34;;;;;;;3.90;2.10;;;4.60;99.90;;;;;;5057134;28;20430;-70
2024/01/23 08:15:00;;;;;;;5.67;1.60;;;4.60;99.90;;;;;;5055468;28;20514;-72
2024/01/23 08:17:26;;;;;;;4.50;1.83;;;4.60;99.90;;;;;;5041264;28;20223;-72
2024/01/23 08:19:52;;;;;;;2.27;1.40;;;4.60;99.90;;;;;;5050703;28;21560;-72
2024/01/23 08:22:17;;;;;;;1.67;1.30;;;5.00;99.90;;;;;;5056418;28;20231;-72
2024/01/23 08:24:43;;;;;;;6.00;1.80;;;5.80;99.90;;;;;;5052573;28;20487;-73
2024/01/23 08:27:08;;;;;;;7.87;5.40;;;6.50;99.90;;;;;;5034344;28;20209;-71
2024/01/23 08:29:34;;;;;;;4.33;2.97;;;7.00;99.90;;;;;;5057984;28;20209;-72
2024/01/23 08:32:00;;;;;;;6.10;2.37;;;7.50;99.90;;;;;;5051603;28;20181;-72
2024/01/23 08:34:26;;;;;;;2.60;1.80;;;8.00;99.90;;;;;;5049482;28;20666;-73
2024/01/23 08:36:51;;;;;;;4.63;1.63;;;8.00;99.90;;;;;;5048544;28;20563;-72
2024/01/23 08:39:18;;;;;;;5.23;1.50;;;7.90;99.90;;;;;;5035433;28;20217;-73
2024/01/23 08:41:43;;;;;;;2.60;1.47;;;7.70;99.90;;;;;;5051650;28;20182;-71
2024/01/23 08:44:09;;;;;;;5.90;1.90;;;7.30;99.90;;;;;;5041394;28;20546;-72
2024/01/23 08:46:34;;;;;;;3.60;1.40;;;7.10;99.90;;;;;;5050526;28;20190;-72
2024/01/23 08:49:00;;;;;;;6.40;1.57;;;6.80;99.90;;;;;;5049083;28;20198;-72
2024/01/23 08:51:28;;;;;;;2.37;1.30;;;6.60;99.90;;;;;;5040374;28;20231;-72
2024/01/23 08:53:54;;;;;;;5.27;1.33;;;6.70;99.90;;;;;;5046496;28;20185;-73
2024/01/23 08:56:23;;;;;;;8.53;1.50;;;7.00;99.90;;;;;;5047812;28;20443;-72
2024/01/23 08:58:49;;;;;;;8.23;3.13;;;7.20;99.90;;;;;;5049532;28;20514;-73
2024/01/23 09:01:16;;;;;;;6.30;3.00;;;7.00;99.90;;;;;;5058991;28;20426;-72
2024/01/23 09:03:42;;;;;;;5.60;1.30;;;6.90;99.90;;;;;;5052060;28;20463;-71
2024/01/23 09:06:09;;;;;;;6.20;1.53;;;6.80;99.90;;;;;;5055095;28;20439;-73
2024/01/23 09:08:35;;;;;;;8.93;2.07;;;7.00;99.90;;;;;;5062908;28;20194;-72
2024/01/23 09:11:00;;;;;;;8.27;2.43;;;7.40;99.90;;;;;;5060805;28;20474;-72
2024/01/23 09:13:30;;;;;;;4.40;1.77;;;7.90;99.90;;;;;;5062385;28;20995;-72
2024/01/23 09:15:56;;;;;;;6.73;3.23;;;7.80;99.90;;;;;;5049188;28;20199;-72
2024/01/23 09:18:21;;;;;;;5.97;1.67;;;7.50;99.90;;;;;;5059631;28;20459;-72
2024/01/23 09:20:47;;;;;;;3.07;1.70;;;7.20;99.90;;;;;;5050549;28;20531;-72
2024/01/23 09:23:12;;;;;;;3.77;1.90;;;7.10;99.90;;;;;;5060899;28;20651;-73
2024/01/23 09:25:38;;;;;;;5.87;1.40;;;7.00;99.90;;;;;;5057236;28;20237;-72
2024/01/23 09:28:03;;;;;;;2.60;1.30;;;7.20;99.90;;;;;;5050388;28;20209;-73
2024/01/23 09:30:29;;;;;;;4.57;1.37;;;7.20;99.90;;;;;;5063941;28;20585;-72
2024/01/23 09:32:55;;;;;;;2.27;1.57;;;7.40;99.90;;;;;;5040818;28;20896;-72
2024/01/23 09:35:20;;;;;;;2.50;1.17;;;7.60;99.90;;;;;;5055544;28;20222;-72
2024/01/23 09:37:46;;;;;;;4.10;1.50;;;7.80;99.90;;;;;;5066748;28;20201;-72
2024/01/23 09:40:12;;;;;;;3.00;1.40;;;7.80;99.90;;;;;;5052628;28;20170;-72
2024/01/23 09:42:41;;;;;;;5.87;1.47;;;7.80;99.90;;;;;;5064465;28;20778;-71
2024/01/23 09:45:15;;;;;;;2.63;1.30;;;8.00;99.90;;;;;;5046038;28;20208;-72
2024/01/23 09:47:42;;;;;;;3.30;1.70;;;9.20;99.90;;;;;;5039350;28;20492;-72
2024/01/23 09:50:11;;;;;;;2.50;1.23;;;9.20;99.90;;;;;;5058984;28;20484;-73
2024/01/23 09:52:38;;;;;;;4.50;1.77;;;9.00;99.90;;;;;;5058460;28;20435;-72
2024/01/23 09:55:04;;;;;;;4.33;3.07;;;8.50;99.90;;;;;;5053305;28;20439;-72
2024/01/23 09:57:31;;;;;;;1.67;1.20;;;8.10;99.90;;;;;;5046263;28;20473;-73
2024/01/23 09:59:57;;;;;;;8.83;2.47;;;7.90;99.90;;;;;;5063931;28;20431;-71
2024/01/23 10:02:23;;;;;;;3.80;1.67;;;7.80;99.90;;;;;;5066053;28;20451;-72
2024/01/23 10:04:51;;;;;;;5.10;2.00;;;7.80;99.90;;;;;;5053522;28;20205;-72
2024/01/23 10:07:17;;;;;;;4.10;1.90;;;8.00;99.90;;;;;;5047922;28;20571;-72
2024/01/23 10:09:59;;;;;;;3.20;1.93;;;7.80;99.90;;;;;;5034991;28;20858;-72
2024/01/23 10:12:24;;;;;;;3.27;1.53;;;7.50;99.90;;;;;;5065045;28;20180;-72
2024/01/23 10:14:50;;;;;;;4.07;1.80;;;7.40;99.90;;;;;;5053502;28;20423;-72
2024/01/23 10:17:15;;;;;;;9.20;1.70;;;7.60;99.90;;;;;;5048153;28;20687;-72
2024/01/23 10:19:41;;;;;;;10.20;1.70;;;8.10;99.90;;;;;;5042247;28;20166;-71
2024/01/23 10:22:07;;;;;;;4.20;2.00;;;8.90;99.90;;;;;;5045883;28;20215;-72
2024/01/23 10:24:33;;;;;;;2.23;1.70;;;10.30;99.90;;;;;;5038611;28;20702;-71
2024/01/23 10:26:58;;;;;;;6.23;1.70;;;12.20;38.90;;;;;;5036229;28;20424;-72
2024/01/23 10:29:25;;;;;;;4.93;1.70;;;14.30;1.00;;;;;;5046957;28;20178;-72
2024/01/23 10:31:50;;;;;;;4.23;2.27;;;15.00;99.90;;;;;;5043424;28;20173;-73
2024/01/23 10:34:16;;;;;;;3.03;2.40;;;15.50;99.90;;;;;;5053134;28;20474;-73
2024/01/23 10:36:42;;;;;;;4.00;2.03;;;15.40;99.90;;;;;;5045730;28;20181;-70
2024/01/23 10:39:10;;;;;;;6.00;1.80;;;16.00;99.90;;;;;;5043768;28;20190;-72
2024/01/23 10:41:36;;;;;;;7.00;2.10;;;16.90;99.90;;;;;;5057487;28;20435;-72
2024/01/23 10:44:03;;;;;;;4.43;2.07;;;15.80;99.90;;;;;;5048632;28;20471;-72
2024/01/23 10:46:30;;;;;;;2.33;1.90;;;16.10;99.90;;;;;;5055687;28;20832;-71
2024/01/23 10:48:56;;;;;;;4.97;2.60;;;15.90;99.90;;;;;;5048466;28;20452;-72
2024/01/23 10:51:26;;;;;;;4.43;1.90;;;16.10;99.90;;;;;;5055463;28;20439;-68
2024/01/23 10:54:01;;;;;;;5.73;2.17;;;16.40;99.90;;;;;;5052404;28;20987;-70
2024/01/23 10:56:31;;;;;;;2.80;2.57;;;17.70;96.40;;;;;;5048759;28;20441;-71
2024/01/23 10:59:01;;;;;;;2.37;1.67;;;18.50;92.10;;;;;;5056686;28;20475;-71
2024/01/23 11:01:34;;;;;;;4.20;2.60;;;17.80;91.50;;;;;;5050020;28;20947;-71
2024/01/23 11:04:03;;;;;;;6.17;2.93;;;17.40;93.60;;;;;;5053698;28;20514;-71
2024/01/23 11:06:34;;;;;;;3.20;2.40;;;17.80;93.50;;;;;;5047254;28;20435;-71
2024/01/23 11:09:25;;;;;;;5.00;2.93;;;18.10;91.00;;;;;;5057842;28;20440;-69
2024/01/23 11:11:58;;;;;;;4.33;2.03;;;19.70;82.30;;;;;;5046247;28;20522;-71
2024/01/23 11:14:29;;;;;;;2.80;1.80;;;19.90;74.70;;;;;;5043599;28;20511;-68
2024/01/23 11:17:13;;;;;;;4.13;2.40;;;20.20;74.70;;;;;;5042063;28;20544;-67
2024/01/23 11:19:42;;;;;;;4.37;2.07;;;20.60;71.30;;;;;;5045661;28;20424;-69
2024/01/23 11:22:08;;;;;;;3.73;2.17;;;20.10;67.80;;;;;;5050072;28;20483;-71
2024/01/23 11:24:44;;;;;;;3.63;2.50;;;18.60;71.20;;;;;;5061347;28;20494;-72
2024/01/23 11:27:23;;;;;;;6.07;2.37;;;18.90;74.60;;;;;;5047929;28;20577;-69
2024/01/23 11:29:50;;;;;;;3.70;2.10;;;20.20;65.50;;;;;;5040881;28;20440;-71
2024/01/23 11:32:16;;;;;;;4.57;2.20;;;20.00;63.50;;;;;;5045178;28;20443;-68
2024/01/23 11:34:42;;;;;;;3.13;2.17;;;18.40;65.80;;;;;;5044551;28;20436;-69
2024/01/23 11:37:33;;;;;;;6.50;2.90;;;16.40;74.80;;;;;;5045798;28;20928;-67
2024/01/23 11:40:05;;;;;;;9.60;3.27;;;16.90;80.40;;;;;;5038853;28;20196;-68
2024/01/23 11:42:41;;;;;;;6.07;2.83;;;17.50;70.20;;;;;;5035988;28;20869;-68
2024/01/23 11:45:25;;;;;;;4.87;2.10;;;17.70;67.20;;;;;;5035327;28;20476;-69
2024/01/23 11:47:57;;;;;;;5.77;2.87;;;18.90;63.90;;;;;;5039078;28;20451;-68
2024/01/23 11:50:24;;;;;;;7.13;2.33;;;19.80;60.40;;;;;;5046121;28;20446;-70
2024/01/23 11:52:54;;;;;;;5.70;2.87;;;19.80;57.60;;;;;;5042403;28;20527;-69
2024/01/23 11:55:20;;;;;;;11.20;3.03;;;17.80;61.60;;;;;;5045519;28;20448;-68
2024/01/23 11:57:59;;;;;;;3.43;2.00;;;17.40;64.30;;;;;;5038445;28;20466;-69
2024/01/23 12:00:27;;;;;;;5.20;2.80;;;17.30;63.80;;;;;;5041958;23;20924;-67
2024/01/23 12:02:53;;;;;;;5.73;2.77;;;17.00;66.10;;;;;;5023066;28;20434;-68
2024/01/23 12:05:19;;;;;;;12.03;3.23;;;16.30;68.80;;;;;;5023680;28;20456;-69
2024/01/23 12:07:45;;;;;;;6.20;2.43;;;16.70;72.30;;;;;;5014753;28;20451;-68
2024/01/23 12:10:16;;;;;;;8.23;4.80;;;17.70;65.00;;;;;;5028477;28;20452;-69
2024/01/23 12:12:42;;;;;;;7.07;3.00;;;18.70;59.60;;;;;;5024781;28;20429;-68
2024/01/23 12:15:08;;;;;;;5.80;3.10;;;19.40;56.50;;;;;;5021880;28;20824;-68
2024/01/23 12:17:35;;;;;;;7.93;2.87;;;19.00;57.60;;;;;;5027347;28;20173;-69
2024/01/23 12:20:09;;;;;;;7.07;2.40;;;19.00;56.10;;;;;;5025569;28;20491;-68
2024/01/23 12:22:36;;;;;;;4.40;3.30;;;17.90;58.60;;;;;;5023482;28;20441;-68
2024/01/23 12:25:02;;;;;;;8.97;2.90;;;17.70;60.80;;;;;;5028334;28;20460;-67
2024/01/23 12:27:30;;;;;;;5.30;2.50;;;17.90;59.40;;;;;;5033607;28;20523;-68
2024/01/23 12:29:57;;;;;;;9.50;3.87;;;18.20;59.70;;;;;;5035803;28;20459;-68
2024/01/23 12:32:29;;;;;;;6.47;2.73;;;17.60;59.80;;;;;;5040062;28;20499;-68
2024/01/23 12:34:55;;;;;;;6.23;2.63;;;15.30;65.80;;;;;;5031964;28;20495;-68
2024/01/23 12:37:28;;;;;;;5.03;2.47;;;13.80;85.60;;;;;;5025905;28;20443;-68
2024/01/23 12:39:54;;;;;;;5.07;2.27;;;12.90;99.90;;;;;;5035894;28;20460;-68
2024/01/23 12:42:20;;;;;;;6.40;2.17;;;12.40;1.00;;;;;;5038508;28;20438;-68
2024/01/23 12:44:46;;;;;;;5.27;2.30;;;11.90;1.00;;;;;;5029142;28;20449;-68
2024/01/23 12:47:14;;;;;;;8.93;3.07;;;11.70;1.00;;;;;;5033560;28;20178;-68
2024/01/23 12:49:40;;;;;;;10.33;3.10;;;11.40;1.00;;;;;;5039312;28;20960;-68
2024/01/23 12:52:14;;;;;;;5.60;1.90;;;11.20;1.00;;;;;;5035569;28;20440;-68